LFPB/LBG METAR and TAF weather

Enter ICAO airport designator
Station Type Date Time Source
LFPB METAR 2019/08/17 10:30 UTC NOAA

LFPB 171030Z AUTO 18009KT 9999 -RA OVC012/// ///TCU 19/17 Q1010 TEMPO BKN007


Station Type Date Time Source
LFPB Decoded METAR 2019/08/17 10:30 UTC NOAA

Station name not available
Aug 17, 2019 - 06:30 AM EDT / 2019.08.17 1030 UTC
Wind: from the S (180 degrees) at 10 MPH (9 KT):0
Visibility: greater than 7 mile(s):0
Sky conditions: overcast
Weather: light rain; Towering cumulus clouds observed
Temperature: 66 F (19 C)
Dew Point: 62 F (17 C)
Relative Humidity: 88%
Pressure (altimeter): 29.83 in. Hg (1010 hPa)
ob: LFPB 171030Z AUTO 18009KT 9999 -RA OVC012/// ///TCU 19/17 Q1010 TEMPO BKN007
cycle: 10

Station Type Date Time Source
LFPB TAF 2019/08/17 06:21 UTC NOAA

TAF LFPB 170500Z 1706/1806 20010KT 8000 -RA OVC012
TEMPO 1708/1720 BKN007 PROB40
TEMPO 1721/1806 3000 RA
BECMG 1802/1804 20015G25KT
BECMG 1805/1806 BKN020

Example: see airport list